Time;durP1;ratioP1;P1;durP2;ratioP2;P2;SDS_P1;SDS_P2;PMS_P1;PMS_P2;Temp;Humidity;BMP_temperature;BMP_pressure;BME280_temperature;BME280_humidity;BME280_pressure;Samples;Min_cycle;Max_cycle;Signal;HPM_P1;HPM_P2
2021/12/28 00:02:18;;;;;;;23.52;11.82;;;;;;;;;;5083854;28;20035;-78
2021/12/28 00:04:44;;;;;;;22.40;11.43;;;;;;;;;;5083414;28;20052;-78
2021/12/28 00:07:10;;;;;;;18.75;10.88;;;;;;;;;;5082129;28;20044;-78
2021/12/28 00:09:36;;;;;;;19.38;10.73;;;;;;;;;;5073767;28;20039;-77
2021/12/28 00:12:02;;;;;;;20.88;11.45;;;;;;;;;;5067732;28;20044;-78
2021/12/28 00:14:35;;;;;;;18.50;11.18;;;;;;;;;;5081981;28;20583;-78
2021/12/28 00:19:45;;;;;;;24.73;11.60;;;;;;;;;;5091604;28;20036;-77
2021/12/28 00:22:11;;;;;;;19.25;11.38;;;;;;;;;;5067207;28;20046;-78
2021/12/28 00:24:37;;;;;;;22.33;10.98;;;;;;;;;;5082289;28;20036;-77
2021/12/28 00:27:04;;;;;;;24.00;11.25;;;;;;;;;;5083759;28;20032;-77
2021/12/28 00:29:30;;;;;;;21.88;11.45;;;;;;;;;;5089419;28;20094;-78
2021/12/28 00:31:56;;;;;;;26.27;12.23;;;;;;;;;;5092609;28;20508;-77
2021/12/28 00:34:22;;;;;;;24.67;13.15;;;;;;;;;;5095495;28;20122;-77
2021/12/28 00:36:48;;;;;;;26.42;13.38;;;;;;;;;;5113053;28;20116;-79
2021/12/28 00:39:14;;;;;;;28.15;12.98;;;;;;;;;;5113226;28;20036;-78
2021/12/28 00:41:40;;;;;;;28.02;14.27;;;;;;;;;;5113539;28;20047;-78
2021/12/28 00:44:07;;;;;;;25.13;12.50;;;;;;;;;;5113200;28;20143;-77
2021/12/28 00:46:33;;;;;;;25.92;12.65;;;;;;;;;;5095929;28;20085;-77
2021/12/28 00:48:59;;;;;;;30.20;13.63;;;;;;;;;;5095946;28;20071;-77
2021/12/28 00:51:25;;;;;;;29.23;14.00;;;;;;;;;;5112862;28;20042;-77
2021/12/28 00:53:51;;;;;;;33.00;13.77;;;;;;;;;;5112908;28;20114;-77
2021/12/28 00:56:17;;;;;;;27.25;14.10;;;;;;;;;;5112850;28;20502;-78
2021/12/28 00:58:43;;;;;;;27.73;12.25;;;;;;;;;;5112933;28;20429;-77
2021/12/28 01:01:09;;;;;;;27.05;12.48;;;;;;;;;;5096125;28;20049;-77
2021/12/28 01:03:37;;;;;;;28.25;14.07;;;;;;;;;;5097546;28;20044;-77
2021/12/28 01:06:04;;;;;;;29.63;14.18;;;;;;;;;;5092290;28;20052;-77
2021/12/28 01:08:30;;;;;;;29.15;13.65;;;;;;;;;;5092236;28;20496;-77
2021/12/28 01:10:57;;;;;;;31.98;14.23;;;;;;;;;;5092229;28;20044;-78
2021/12/28 01:13:24;;;;;;;30.25;14.75;;;;;;;;;;5092255;28;20044;-77
2021/12/28 01:15:50;;;;;;;30.00;14.13;;;;;;;;;;5092332;28;20097;-77
2021/12/28 01:18:16;;;;;;;30.88;13.05;;;;;;;;;;5092202;28;20032;-77
2021/12/28 01:20:43;;;;;;;32.00;14.77;;;;;;;;;;5092266;28;20055;-77
2021/12/28 01:23:09;;;;;;;29.65;13.57;;;;;;;;;;5092201;28;20036;-77
2021/12/28 01:25:35;;;;;;;34.50;14.93;;;;;;;;;;5091913;28;20054;-78
2021/12/28 01:28:01;;;;;;;34.60;15.88;;;;;;;;;;5092135;28;20083;-78
2021/12/28 01:30:28;;;;;;;35.70;14.73;;;;;;;;;;5091915;28;20040;-77
2021/12/28 01:32:57;;;;;;;31.83;15.75;;;;;;;;;;5090395;28;20479;-77
2021/12/28 01:35:23;;;;;;;32.53;14.98;;;;;;;;;;5091697;28;20043;-78
2021/12/28 01:37:49;;;;;;;34.38;16.00;;;;;;;;;;5091663;28;20039;-77
2021/12/28 01:40:17;;;;;;;34.13;15.00;;;;;;;;;;5091497;28;20399;-78
2021/12/28 01:42:56;;;;;;;35.78;15.05;;;;;;;;;;5091689;28;20040;-77
2021/12/28 01:45:35;;;;;;;38.08;15.77;;;;;;;;;;5091281;28;20036;-77
2021/12/28 01:48:01;;;;;;;38.85;15.73;;;;;;;;;;5090608;28;20381;-77
2021/12/28 01:50:27;;;;;;;37.92;14.90;;;;;;;;;;5091242;28;20050;-77
2021/12/28 01:52:53;;;;;;;49.40;18.90;;;;;;;;;;5091274;28;20126;-77
2021/12/28 01:55:19;;;;;;;41.03;16.92;;;;;;;;;;5091210;28;20484;-77
2021/12/28 01:57:45;;;;;;;47.75;18.00;;;;;;;;;;5090963;28;20036;-78
2021/12/28 02:00:12;;;;;;;49.38;18.40;;;;;;;;;;5091489;28;20066;-78
2021/12/28 02:02:38;;;;;;;38.45;16.42;;;;;;;;;;5089757;28;20403;-78
2021/12/28 02:05:04;;;;;;;39.88;16.63;;;;;;;;;;5090857;28;20055;-78
2021/12/28 02:07:30;;;;;;;44.50;17.52;;;;;;;;;;5091057;28;20040;-76
2021/12/28 02:09:56;;;;;;;45.20;17.38;;;;;;;;;;5091002;28;20402;-78
2021/12/28 02:12:22;;;;;;;52.40;19.45;;;;;;;;;;5090942;28;20038;-78
2021/12/28 02:14:48;;;;;;;42.78;17.83;;;;;;;;;;5091140;28;20479;-78
2021/12/28 02:17:14;;;;;;;50.45;19.95;;;;;;;;;;5091086;28;20044;-77
2021/12/28 02:19:42;;;;;;;53.08;18.73;;;;;;;;;;5091143;28;20126;-77
2021/12/28 02:22:08;;;;;;;50.90;17.77;;;;;;;;;;5090990;28;20046;-78
2021/12/28 02:24:34;;;;;;;50.95;18.42;;;;;;;;;;5090871;28;20043;-77
2021/12/28 02:27:00;;;;;;;76.90;22.40;;;;;;;;;;5091034;28;20047;-78
2021/12/28 02:29:26;;;;;;;102.10;22.90;;;;;;;;;;5091036;28;20077;-77
2021/12/28 02:31:55;;;;;;;71.13;20.35;;;;;;;;;;5090514;28;20072;-78
2021/12/28 02:34:25;;;;;;;68.45;20.20;;;;;;;;;;5093559;28;20040;-78
2021/12/28 02:36:51;;;;;;;60.28;19.48;;;;;;;;;;5110930;28;20085;-77
2021/12/28 02:39:17;;;;;;;79.70;21.92;;;;;;;;;;5094030;28;20503;-77
2021/12/28 02:41:43;;;;;;;56.65;19.88;;;;;;;;;;5093895;28;20576;-78
2021/12/28 02:44:10;;;;;;;123.70;24.48;;;;;;;;;;5110952;28;20040;-77
2021/12/28 02:46:35;;;;;;;85.53;23.30;;;;;;;;;;5094196;28;20130;-78
2021/12/28 02:49:01;;;;;;;64.75;19.73;;;;;;;;;;5094257;28;20074;-77
2021/12/28 02:51:27;;;;;;;65.35;21.20;;;;;;;;;;5093968;28;20088;-77
2021/12/28 02:53:53;;;;;;;71.00;21.05;;;;;;;;;;5094044;28;20035;-77
2021/12/28 02:56:20;;;;;;;69.50;21.55;;;;;;;;;;5111195;28;20035;-77
2021/12/28 02:58:47;;;;;;;59.83;20.88;;;;;;;;;;5110872;28;20043;-77
2021/12/28 03:01:16;;;;;;;73.93;22.80;;;;;;;;;;5093960;28;20124;-78
2021/12/28 03:03:43;;;;;;;95.95;23.02;;;;;;;;;;5109110;28;20082;-78
2021/12/28 03:06:10;;;;;;;72.47;20.75;;;;;;;;;;5110349;28;20487;-77
2021/12/28 03:08:39;;;;;;;59.00;19.52;;;;;;;;;;5110608;28;20058;-77
2021/12/28 03:11:06;;;;;;;90.38;22.80;;;;;;;;;;5093660;28;20040;-77
2021/12/28 03:13:34;;;;;;;66.43;20.63;;;;;;;;;;5093584;28;20483;-78
2021/12/28 03:16:00;;;;;;;59.47;19.38;;;;;;;;;;5110725;28;20093;-77
2021/12/28 03:18:26;;;;;;;68.60;20.42;;;;;;;;;;5110827;28;20040;-77
2021/12/28 03:20:52;;;;;;;70.55;22.83;;;;;;;;;;5110758;28;20046;-77
2021/12/28 03:23:19;;;;;;;80.90;22.27;;;;;;;;;;5110400;28;20039;-77
2021/12/28 03:25:45;;;;;;;96.90;24.00;;;;;;;;;;5110563;28;20051;-78
2021/12/28 03:28:22;;;;;;;84.88;23.85;;;;;;;;;;5110697;28;20522;-77
2021/12/28 03:30:49;;;;;;;101.15;23.77;;;;;;;;;;5110260;28;20134;-77
2021/12/28 03:33:15;;;;;;;89.47;24.80;;;;;;;;;;5091343;28;20066;-77
2021/12/28 03:35:41;;;;;;;70.93;22.63;;;;;;;;;;5093001;28;20036;-78
2021/12/28 03:38:07;;;;;;;126.63;26.20;;;;;;;;;;5109918;28;20149;-77
2021/12/28 03:40:34;;;;;;;90.78;23.10;;;;;;;;;;5110023;28;20047;-77
2021/12/28 03:43:00;;;;;;;68.40;21.13;;;;;;;;;;5092869;28;20044;-77
2021/12/28 03:45:26;;;;;;;71.72;21.15;;;;;;;;;;5110152;28;20509;-78
2021/12/28 03:47:52;;;;;;;77.03;23.13;;;;;;;;;;5093184;28;20071;-78
2021/12/28 03:50:19;;;;;;;64.63;21.45;;;;;;;;;;5109862;28;20124;-77
2021/12/28 03:52:46;;;;;;;76.07;22.35;;;;;;;;;;5093318;28;20036;-78
2021/12/28 03:55:12;;;;;;;63.75;21.20;;;;;;;;;;5110158;28;20479;-77
2021/12/28 03:57:39;;;;;;;70.15;22.00;;;;;;;;;;5093336;28;20075;-77
2021/12/28 04:00:06;;;;;;;67.70;22.40;;;;;;;;;;5092923;28;20127;-78
2021/12/28 04:02:32;;;;;;;83.15;23.30;;;;;;;;;;5093061;28;20118;-77
2021/12/28 04:04:58;;;;;;;77.78;22.35;;;;;;;;;;5109899;28;20463;-78
2021/12/28 04:07:24;;;;;;;86.63;21.40;;;;;;;;;;5109845;28;20035;-78
2021/12/28 04:12:17;;;;;;;89.78;24.98;;;;;;;;;;5113664;28;20043;-78
2021/12/28 04:14:43;;;;;;;142.25;26.05;;;;;;;;;;5096640;28;20082;-78
2021/12/28 04:17:09;;;;;;;116.88;24.25;;;;;;;;;;5113543;28;20036;-78
2021/12/28 04:19:35;;;;;;;94.50;23.10;;;;;;;;;;5113396;28;20027;-77
2021/12/28 04:22:01;;;;;;;130.05;26.75;;;;;;;;;;5096245;28;20050;-78
2021/12/28 04:24:27;;;;;;;143.02;27.83;;;;;;;;;;5113443;28;20044;-77
2021/12/28 04:26:53;;;;;;;224.40;33.30;;;;;;;;;;5096354;28;20495;-77
2021/12/28 04:29:19;;;;;;;171.25;26.45;;;;;;;;;;5113131;28;20047;-77
2021/12/28 04:31:45;;;;;;;212.48;30.30;;;;;;;;;;5095961;28;20066;-78
2021/12/28 04:34:11;;;;;;;180.68;28.02;;;;;;;;;;5096400;28;20040;-77
2021/12/28 04:36:37;;;;;;;172.05;25.30;;;;;;;;;;5095823;28;20044;-77
2021/12/28 04:39:04;;;;;;;260.02;30.88;;;;;;;;;;5095974;28;20096;-77
2021/12/28 04:41:30;;;;;;;267.00;31.55;;;;;;;;;;5112802;28;20134;-77
2021/12/28 04:43:59;;;;;;;308.42;38.75;;;;;;;;;;5112689;28;20138;-77
2021/12/28 04:46:25;;;;;;;164.98;25.95;;;;;;;;;;5096132;28;20479;-78
2021/12/28 04:48:51;;;;;;;204.55;27.75;;;;;;;;;;5112681;28;20372;-77
2021/12/28 04:51:17;;;;;;;227.07;29.77;;;;;;;;;;5112520;28;20039;-77
2021/12/28 04:53:43;;;;;;;299.15;34.05;;;;;;;;;;5112688;28;20047;-77
2021/12/28 04:56:09;;;;;;;122.07;22.42;;;;;;;;;;5095539;28;20118;-77
2021/12/28 04:58:35;;;;;;;176.38;26.08;;;;;;;;;;5095715;28;20054;-77
2021/12/28 05:01:01;;;;;;;101.13;20.17;;;;;;;;;;5112495;28;20040;-77
2021/12/28 05:03:27;;;;;;;101.57;19.70;;;;;;;;;;5095481;28;20054;-77
2021/12/28 05:05:53;;;;;;;125.32;21.42;;;;;;;;;;5112091;28;20059;-77
2021/12/28 05:08:21;;;;;;;119.70;21.00;;;;;;;;;;5112724;28;20043;-77
2021/12/28 05:10:48;;;;;;;127.40;21.40;;;;;;;;;;5112277;28;20051;-77
2021/12/28 05:13:14;;;;;;;101.60;20.90;;;;;;;;;;5095351;28;20078;-77
2021/12/28 05:15:45;;;;;;;93.32;19.55;;;;;;;;;;5112658;28;20075;-77
2021/12/28 05:18:11;;;;;;;157.82;24.83;;;;;;;;;;5112222;28;20036;-78
2021/12/28 05:20:37;;;;;;;94.50;18.85;;;;;;;;;;5095447;28;20096;-77
2021/12/28 05:23:03;;;;;;;163.80;24.90;;;;;;;;;;5095340;28;20084;-77
2021/12/28 05:25:30;;;;;;;107.60;18.85;;;;;;;;;;5095092;28;20043;-77
2021/12/28 05:27:56;;;;;;;85.60;18.50;;;;;;;;;;5094963;28;20046;-77
2021/12/28 05:30:22;;;;;;;101.55;18.80;;;;;;;;;;5112195;28;20039;-77
2021/12/28 05:32:48;;;;;;;176.68;23.80;;;;;;;;;;5112038;28;20044;-76
2021/12/28 05:35:15;;;;;;;195.38;26.27;;;;;;;;;;5112167;28;20048;-77
2021/12/28 05:37:41;;;;;;;86.40;18.08;;;;;;;;;;5111837;28;20036;-77
2021/12/28 05:40:08;;;;;;;61.38;16.25;;;;;;;;;;5094814;28;20422;-77
2021/12/28 05:42:34;;;;;;;74.75;18.98;;;;;;;;;;5111863;28;20507;-77
2021/12/28 05:45:00;;;;;;;62.70;16.17;;;;;;;;;;5111631;28;20046;-77
2021/12/28 05:47:26;;;;;;;70.25;18.40;;;;;;;;;;5095342;28;20046;-77
2021/12/28 05:49:52;;;;;;;99.55;19.60;;;;;;;;;;5095126;28;20039;-77
2021/12/28 05:52:18;;;;;;;111.28;20.30;;;;;;;;;;5094716;28;20403;-77
2021/12/28 05:54:44;;;;;;;63.92;16.88;;;;;;;;;;5095003;28;20039;-77
2021/12/28 05:57:10;;;;;;;69.78;18.15;;;;;;;;;;5111609;28;20118;-77
2021/12/28 05:59:37;;;;;;;75.60;17.90;;;;;;;;;;5097503;28;20043;-77
2021/12/28 06:02:03;;;;;;;70.90;16.67;;;;;;;;;;5091174;28;20036;-77
2021/12/28 06:04:29;;;;;;;63.38;17.42;;;;;;;;;;5091064;28;20118;-76
2021/12/28 06:06:55;;;;;;;72.25;18.52;;;;;;;;;;5091217;28;20476;-77
2021/12/28 06:09:21;;;;;;;62.58;16.88;;;;;;;;;;5091091;28;20114;-77
2021/12/28 06:11:47;;;;;;;56.88;15.32;;;;;;;;;;5091058;28;20121;-76
2021/12/28 06:14:13;;;;;;;51.10;15.95;;;;;;;;;;5091231;28;20071;-77
2021/12/28 06:16:39;;;;;;;55.70;16.08;;;;;;;;;;5090935;28;20156;-77
2021/12/28 06:19:06;;;;;;;65.50;17.30;;;;;;;;;;5090888;28;20047;-77
2021/12/28 06:21:33;;;;;;;59.70;16.00;;;;;;;;;;5090799;28;20130;-77
2021/12/28 06:24:00;;;;;;;50.42;15.95;;;;;;;;;;5090837;28;20092;-77
2021/12/28 06:26:35;;;;;;;50.70;15.13;;;;;;;;;;5090725;28;20051;-77
2021/12/28 06:29:03;;;;;;;54.17;15.25;;;;;;;;;;5089721;28;20511;-77
2021/12/28 06:31:29;;;;;;;59.55;15.93;;;;;;;;;;5090758;28;20051;-77
2021/12/28 06:33:58;;;;;;;57.83;15.23;;;;;;;;;;5088571;28;20036;-77
2021/12/28 06:36:24;;;;;;;45.38;13.65;;;;;;;;;;5090724;28;20039;-77
2021/12/28 06:38:51;;;;;;;49.92;15.55;;;;;;;;;;5090183;28;20442;-77
2021/12/28 06:41:17;;;;;;;45.33;16.08;;;;;;;;;;5090624;28;20035;-77
2021/12/28 06:43:43;;;;;;;64.45;17.45;;;;;;;;;;5090544;28;20044;-77
2021/12/28 06:46:09;;;;;;;64.35;16.20;;;;;;;;;;5090430;28;20086;-77
2021/12/28 06:48:35;;;;;;;41.08;15.48;;;;;;;;;;5090854;28;20079;-77
2021/12/28 06:51:03;;;;;;;52.15;16.67;;;;;;;;;;5090286;28;20530;-78
2021/12/28 06:53:28;;;;;;;59.55;17.42;;;;;;;;;;5090316;28;20036;-77
2021/12/28 06:55:54;;;;;;;53.17;15.65;;;;;;;;;;5090609;28;20492;-76
2021/12/28 06:58:20;;;;;;;51.78;16.10;;;;;;;;;;5090439;28;20118;-77
2021/12/28 07:00:46;;;;;;;45.72;15.88;;;;;;;;;;5090344;28;20127;-77
2021/12/28 07:03:12;;;;;;;49.72;14.65;;;;;;;;;;5088841;28;20036;-78
2021/12/28 07:05:38;;;;;;;47.40;14.25;;;;;;;;;;5089959;28;20500;-78
2021/12/28 07:08:05;;;;;;;43.85;14.63;;;;;;;;;;5090296;28;20048;-77
2021/12/28 07:10:31;;;;;;;35.33;12.70;;;;;;;;;;5090203;28;20452;-79
2021/12/28 07:12:57;;;;;;;42.10;14.15;;;;;;;;;;5090163;28;20044;-77
2021/12/28 07:15:23;;;;;;;50.53;13.80;;;;;;;;;;5090392;28;20127;-77
2021/12/28 07:17:50;;;;;;;42.97;14.82;;;;;;;;;;5090599;28;20040;-77
2021/12/28 07:20:16;;;;;;;47.55;14.90;;;;;;;;;;5090179;28;20409;-77
2021/12/28 07:22:42;;;;;;;39.08;13.95;;;;;;;;;;5090428;28;20055;-78
2021/12/28 07:25:09;;;;;;;41.13;14.38;;;;;;;;;;5090139;28;20412;-78
2021/12/28 07:27:35;;;;;;;32.72;13.13;;;;;;;;;;5090404;28;20042;-77
2021/12/28 07:30:01;;;;;;;44.20;13.55;;;;;;;;;;5090330;28;20044;-78
2021/12/28 07:32:27;;;;;;;44.58;13.98;;;;;;;;;;5088102;28;20042;-77
2021/12/28 07:34:53;;;;;;;33.50;13.00;;;;;;;;;;5090050;28;20036;-78
2021/12/28 07:37:19;;;;;;;31.77;13.43;;;;;;;;;;5089739;28;20075;-77
2021/12/28 07:39:50;;;;;;;30.13;11.80;;;;;;;;;;5090028;28;20051;-78
2021/12/28 07:42:16;;;;;;;30.10;10.65;;;;;;;;;;5089997;28;20100;-77
2021/12/28 07:44:42;;;;;;;31.67;11.55;;;;;;;;;;5090074;28;20040;-78
2021/12/28 07:47:08;;;;;;;30.65;11.60;;;;;;;;;;5094127;28;20097;-78
2021/12/28 07:49:34;;;;;;;26.90;10.43;;;;;;;;;;5093978;28;20126;-77
2021/12/28 07:52:00;;;;;;;28.73;12.05;;;;;;;;;;5090952;28;20040;-78
2021/12/28 07:54:26;;;;;;;26.83;10.50;;;;;;;;;;5090418;28;20056;-78
2021/12/28 07:56:52;;;;;;;27.83;11.18;;;;;;;;;;5090130;28;20114;-77
2021/12/28 07:59:18;;;;;;;27.52;10.93;;;;;;;;;;5090086;28;20100;-78
2021/12/28 08:01:44;;;;;;;23.30;9.35;;;;;;;;;;5090403;28;20554;-78
2021/12/28 08:04:10;;;;;;;20.27;9.55;;;;;;;;;;5088211;28;20586;-79
2021/12/28 08:06:36;;;;;;;24.58;9.15;;;;;;;;;;5072556;28;20064;-78
2021/12/28 08:09:02;;;;;;;20.92;9.10;;;;;;;;;;5071956;28;20440;-78
2021/12/28 08:11:29;;;;;;;29.88;9.65;;;;;;;;;;5089681;28;20515;-78
2021/12/28 08:13:55;;;;;;;25.45;10.93;;;;;;;;;;5073570;28;20403;-78
2021/12/28 08:16:21;;;;;;;25.38;9.98;;;;;;;;;;5093325;28;20517;-78
2021/12/28 08:18:47;;;;;;;31.00;9.32;;;;;;;;;;5093251;28;20036;-78
2021/12/28 08:21:13;;;;;;;23.25;9.10;;;;;;;;;;5076565;28;20048;-78
2021/12/28 08:23:39;;;;;;;25.42;10.32;;;;;;;;;;5093431;28;20040;-78
2021/12/28 08:26:05;;;;;;;27.00;10.43;;;;;;;;;;5093305;28;20123;-79
2021/12/28 08:28:31;;;;;;;30.85;9.65;;;;;;;;;;5093120;28;20094;-78
2021/12/28 08:30:57;;;;;;;17.20;8.20;;;;;;;;;;5076073;28;20072;-79
2021/12/28 08:33:23;;;;;;;20.77;9.23;;;;;;;;;;5091641;28;20403;-77
2021/12/28 08:35:49;;;;;;;18.40;8.35;;;;;;;;;;5093157;28;20043;-79
2021/12/28 08:38:16;;;;;;;22.35;7.75;;;;;;;;;;5075634;28;20032;-78
2021/12/28 08:40:43;;;;;;;19.60;8.02;;;;;;;;;;5076033;28;20108;-78
2021/12/28 08:43:10;;;;;;;21.67;8.93;;;;;;;;;;5093077;28;20075;-78
2021/12/28 08:45:36;;;;;;;21.38;7.90;;;;;;;;;;5075945;28;20483;-79
2021/12/28 08:48:03;;;;;;;15.25;7.47;;;;;;;;;;5075893;28;20147;-78
2021/12/28 08:50:29;;;;;;;21.67;7.38;;;;;;;;;;5076063;28;20078;-78
2021/12/28 08:52:55;;;;;;;19.90;7.45;;;;;;;;;;5075913;28;20039;-79
2021/12/28 08:55:22;;;;;;;19.17;7.63;;;;;;;;;;5076108;28;20036;-78
2021/12/28 08:57:48;;;;;;;17.88;6.93;;;;;;;;;;5075661;28;20071;-77
2021/12/28 09:00:16;;;;;;;16.00;6.45;;;;;;;;;;5075503;28;20547;-79
2021/12/28 09:02:42;;;;;;;17.98;6.80;;;;;;;;;;5090957;28;20040;-78
2021/12/28 09:05:08;;;;;;;16.92;6.32;;;;;;;;;;5092623;28;20043;-78
2021/12/28 09:07:34;;;;;;;22.13;6.88;;;;;;;;;;5075669;28;20056;-78
2021/12/28 09:10:00;;;;;;;24.77;7.30;;;;;;;;;;5092403;28;20041;-78
2021/12/28 09:12:26;;;;;;;23.65;7.63;;;;;;;;;;5075867;28;20097;-79
2021/12/28 09:14:52;;;;;;;19.85;6.53;;;;;;;;;;5075294;28;20036;-77
2021/12/28 09:17:18;;;;;;;19.77;6.95;;;;;;;;;;5087404;28;20036;-77
2021/12/28 09:19:45;;;;;;;17.52;6.28;;;;;;;;;;5091001;28;20083;-77
2021/12/28 09:22:11;;;;;;;21.05;7.00;;;;;;;;;;5092211;28;20078;-78
2021/12/28 09:24:37;;;;;;;21.77;7.43;;;;;;;;;;5091878;28;20048;-78
2021/12/28 09:27:03;;;;;;;17.95;7.15;;;;;;;;;;5091780;28;20040;-77
2021/12/28 09:29:31;;;;;;;20.77;6.65;;;;;;;;;;5092218;28;20044;-76
2021/12/28 09:31:58;;;;;;;17.38;7.45;;;;;;;;;;5089848;28;20496;-78
2021/12/28 09:34:24;;;;;;;19.65;6.72;;;;;;;;;;5100936;28;20130;-79
2021/12/28 09:36:50;;;;;;;20.88;7.05;;;;;;;;;;5091711;28;20483;-79
2021/12/28 09:39:16;;;;;;;20.13;6.38;;;;;;;;;;5091450;28;20443;-78
2021/12/28 09:41:41;;;;;;;21.30;6.45;;;;;;;;;;5091626;28;20043;-78
2021/12/28 09:44:07;;;;;;;18.50;6.22;;;;;;;;;;5091741;28;20043;-79
2021/12/28 09:46:33;;;;;;;15.10;6.30;;;;;;;;;;5091599;28;20151;-78
2021/12/28 09:49:01;;;;;;;17.77;5.03;;;;;;;;;;5091932;28;20123;-78
2021/12/28 09:51:27;;;;;;;18.67;6.50;;;;;;;;;;5091498;28;20040;-79
2021/12/28 09:53:53;;;;;;;23.83;6.47;;;;;;;;;;5091811;28;20031;-79
2021/12/28 09:56:19;;;;;;;22.75;7.07;;;;;;;;;;5091395;28;20081;-78
2021/12/28 09:58:45;;;;;;;16.77;6.25;;;;;;;;;;5091599;28;20316;-77
2021/12/28 10:01:11;;;;;;;18.48;6.72;;;;;;;;;;5091382;28;20039;-78
2021/12/28 10:03:38;;;;;;;21.65;5.55;;;;;;;;;;5089894;28;20040;-79
2021/12/28 10:06:14;;;;;;;17.83;6.53;;;;;;;;;;5074268;28;20048;-77
2021/12/28 10:08:40;;;;;;;11.38;5.18;;;;;;;;;;5090603;28;20055;-78
2021/12/28 10:11:06;;;;;;;14.55;5.22;;;;;;;;;;5074214;28;20452;-78
2021/12/28 10:13:32;;;;;;;12.77;4.63;;;;;;;;;;5091332;28;20047;-79
2021/12/28 10:15:59;;;;;;;15.02;5.95;;;;;;;;;;5091329;28;20042;-78
2021/12/28 10:18:24;;;;;;;15.98;5.70;;;;;;;;;;5090987;28;20043;-79
2021/12/28 10:20:52;;;;;;;15.15;5.57;;;;;;;;;;5074309;28;20043;-79
2021/12/28 10:23:20;;;;;;;12.73;4.95;;;;;;;;;;5091313;28;20051;-79
2021/12/28 10:25:48;;;;;;;15.57;5.85;;;;;;;;;;5073746;28;20044;-78
2021/12/28 10:28:15;;;;;;;20.90;5.85;;;;;;;;;;5073908;28;20040;-78
2021/12/28 10:30:42;;;;;;;17.02;5.95;;;;;;;;;;5090715;28;20044;-80
2021/12/28 10:33:10;;;;;;;13.93;5.43;;;;;;;;;;5088636;28;20036;-78
2021/12/28 10:35:38;;;;;;;14.63;6.00;;;;;;;;;;5090110;28;20097;-78
2021/12/28 10:38:08;;;;;;;21.08;5.90;;;;;;;;;;5073505;28;20395;-78
2021/12/28 10:40:41;;;;;;;16.10;4.97;;;;;;;;;;5073466;28;20040;-78
2021/12/28 10:43:07;;;;;;;13.90;5.03;;;;;;;;;;5090272;28;20039;-79
2021/12/28 10:45:40;;;;;;;17.00;6.13;;;;;;;;;;5090147;28;20068;-78
2021/12/28 10:48:12;;;;;;;14.10;5.18;;;;;;;;;;5073379;28;20044;-78
2021/12/28 10:50:46;;;;;;;17.58;6.07;;;;;;;;;;5090149;28;20123;-79
2021/12/28 10:53:24;;;;;;;15.15;5.70;;;;;;;;;;5090287;28;20036;-78
2021/12/28 10:56:00;;;;;;;12.77;5.43;;;;;;;;;;5090183;28;20446;-79
2021/12/28 10:58:28;;;;;;;13.73;5.82;;;;;;;;;;5073644;28;20051;-80
2021/12/28 11:00:55;;;;;;;15.35;5.00;;;;;;;;;;5073576;28;20044;-78
2021/12/28 11:03:26;;;;;;;14.93;5.90;;;;;;;;;;5090018;28;20488;-78
2021/12/28 11:05:53;;;;;;;14.23;5.70;;;;;;;;;;5089866;28;20074;-77
2021/12/28 11:08:20;;;;;;;15.73;5.80;;;;;;;;;;5089945;28;20044;-78
2021/12/28 11:10:50;;;;;;;12.98;5.35;;;;;;;;;;5073135;28;20090;-76
2021/12/28 11:13:19;;;;;;;13.05;5.28;;;;;;;;;;5089956;28;20040;-78
2021/12/28 11:15:46;;;;;;;13.68;5.20;;;;;;;;;;5072893;28;20038;-77
2021/12/28 11:18:18;;;;;;;14.65;6.43;;;;;;;;;;5073302;28;20040;-78
2021/12/28 11:20:44;;;;;;;15.95;5.63;;;;;;;;;;5076581;28;20051;-77
2021/12/28 11:23:11;;;;;;;13.52;5.63;;;;;;;;;;5093881;28;20043;-78
2021/12/28 11:25:38;;;;;;;12.45;5.82;;;;;;;;;;5093971;28;20384;-78
2021/12/28 11:28:21;;;;;;;18.60;5.72;;;;;;;;;;5077454;28;20036;-77
2021/12/28 11:31:17;;;;;;;15.32;5.47;;;;;;;;;;5091851;28;20040;-79
2021/12/28 11:33:44;;;;;;;18.63;5.78;;;;;;;;;;5072676;28;20044;-77
2021/12/28 11:36:10;;;;;;;17.95;5.93;;;;;;;;;;5076962;28;20040;-77
2021/12/28 11:38:37;;;;;;;12.10;5.30;;;;;;;;;;5093410;28;20044;-78
2021/12/28 11:41:04;;;;;;;15.98;5.72;;;;;;;;;;5077039;28;20044;-77
2021/12/28 11:43:32;;;;;;;18.30;5.68;;;;;;;;;;5076608;28;20385;-76
2021/12/28 11:45:58;;;;;;;15.65;6.22;;;;;;;;;;5076473;28;20032;-77
2021/12/28 11:48:24;;;;;;;17.77;5.35;;;;;;;;;;5091841;28;20384;-77
2021/12/28 11:50:51;;;;;;;16.23;5.63;;;;;;;;;;5089597;28;20511;-78
2021/12/28 11:53:18;;;;;;;16.95;6.00;;;;;;;;;;5073035;28;20505;-78
2021/12/28 11:55:44;;;;;;;10.63;4.97;;;;;;;;;;5086364;28;20068;-77
2021/12/28 11:58:10;;;;;;;11.23;5.80;;;;;;;;;;5079062;28;20028;-77
2021/12/28 12:00:37;;;;;;;13.98;5.50;;;;;;;;;;5078823;28;20094;-77
2021/12/28 12:03:03;;;;;;;13.13;4.97;;;;;;;;;;5077069;28;20048;-76
2021/12/28 12:05:32;;;;;;;15.35;5.35;;;;;;;;;;5078750;28;20066;-77
2021/12/28 12:08:10;;;;;;;13.23;5.97;;;;;;;;;;5078867;28;20079;-79
2021/12/28 12:10:37;;;;;;;14.75;5.90;;;;;;;;;;5087047;28;20052;-77
2021/12/28 12:13:15;;;;;;;19.15;5.90;;;;;;;;;;5082881;28;20036;-77
2021/12/28 12:15:46;;;;;;;14.73;6.15;;;;;;;;;;5085873;28;20048;-76
2021/12/28 12:18:13;;;;;;;12.45;6.47;;;;;;;;;;5082754;28;20035;-77
2021/12/28 12:20:45;;;;;;;17.63;7.22;;;;;;;;;;5078978;28;20049;-77
2021/12/28 12:23:21;;;;;;;14.73;6.60;;;;;;;;;;5094853;28;20484;-76
2021/12/28 12:25:53;;;;;;;13.15;6.47;;;;;;;;;;5094511;28;20044;-77
2021/12/28 12:28:20;;;;;;;14.48;6.13;;;;;;;;;;5077095;28;20043;-76
2021/12/28 12:30:51;;;;;;;10.77;5.95;;;;;;;;;;5096537;28;20085;-76
2021/12/28 12:33:17;;;;;;;12.35;5.97;;;;;;;;;;5090026;28;20035;-77
2021/12/28 12:35:58;;;;;;;10.88;6.32;;;;;;;;;;5089883;28;20499;-76
2021/12/28 12:38:24;;;;;;;16.63;6.80;;;;;;;;;;5089085;28;20079;-78
2021/12/28 12:40:51;;;;;;;12.25;6.25;;;;;;;;;;5089147;28;20407;-78
2021/12/28 12:43:17;;;;;;;12.40;6.05;;;;;;;;;;5089058;28;20079;-76
2021/12/28 12:45:52;;;;;;;17.40;7.13;;;;;;;;;;5089857;28;20051;-76
2021/12/28 12:48:31;;;;;;;17.27;7.70;;;;;;;;;;5082482;28;20037;-77
2021/12/28 12:51:16;;;;;;;15.32;6.65;;;;;;;;;;5092708;28;20055;-78
2021/12/28 12:53:50;;;;;;;15.95;7.78;;;;;;;;;;5071969;28;20043;-77
2021/12/28 12:56:20;;;;;;;19.67;8.10;;;;;;;;;;5089326;28;20043;-76
2021/12/28 12:58:48;;;;;;;14.43;8.13;;;;;;;;;;5089422;28;20048;-77
2021/12/28 13:01:36;;;;;;;12.93;7.25;;;;;;;;;;5087549;28;20040;-77
2021/12/28 13:04:03;;;;;;;16.10;8.05;;;;;;;;;;5088722;28;20511;-77
2021/12/28 13:06:41;;;;;;;15.85;8.45;;;;;;;;;;5088354;28;20063;-76
2021/12/28 13:09:11;;;;;;;13.32;7.72;;;;;;;;;;5071928;28;20079;-77
2021/12/28 13:11:38;;;;;;;15.70;7.70;;;;;;;;;;5088874;28;20044;-76
2021/12/28 13:14:04;;;;;;;15.52;7.63;;;;;;;;;;5072106;28;20044;-77
2021/12/28 13:16:30;;;;;;;16.30;8.82;;;;;;;;;;5088797;28;20130;-77
2021/12/28 13:19:07;;;;;;;14.85;8.55;;;;;;;;;;5088525;28;20075;-77
2021/12/28 13:21:33;;;;;;;14.23;8.25;;;;;;;;;;5071701;28;20062;-77
2021/12/28 13:24:12;;;;;;;16.38;8.15;;;;;;;;;;5088530;28;20515;-77
2021/12/28 13:26:45;;;;;;;13.80;7.70;;;;;;;;;;5071482;28;20040;-76
2021/12/28 13:29:12;;;;;;;15.55;8.73;;;;;;;;;;5088058;28;20047;-77
2021/12/28 13:31:38;;;;;;;17.25;8.57;;;;;;;;;;5086944;28;20420;-77
2021/12/28 13:34:04;;;;;;;12.48;6.80;;;;;;;;;;5086981;28;20539;-77
2021/12/28 13:36:30;;;;;;;18.42;7.72;;;;;;;;;;5064166;28;20041;-76
2021/12/28 13:39:06;;;;;;;13.63;7.57;;;;;;;;;;5070140;28;20051;-75
2021/12/28 13:41:32;;;;;;;14.82;7.78;;;;;;;;;;5068756;28;20047;-76
2021/12/28 13:44:05;;;;;;;12.82;7.15;;;;;;;;;;5067088;28;20491;-77
2021/12/28 13:46:31;;;;;;;21.58;7.90;;;;;;;;;;5067937;28;20067;-77
2021/12/28 13:49:00;;;;;;;18.17;8.52;;;;;;;;;;5069827;28;21043;-78
2021/12/28 13:51:29;;;;;;;16.15;7.53;;;;;;;;;;5084614;28;20078;-76
2021/12/28 13:53:56;;;;;;;16.50;8.13;;;;;;;;;;5078198;28;20040;-76
2021/12/28 13:56:26;;;;;;;19.23;9.95;;;;;;;;;;5088020;28;20036;-76
2021/12/28 13:58:53;;;;;;;14.63;7.90;;;;;;;;;;5088439;28;20051;-77
2021/12/28 14:01:25;;;;;;;13.93;8.80;;;;;;;;;;5087651;28;20105;-76
2021/12/28 14:03:50;;;;;;;;;;;;;;;;;;5085338;28;20047;-76
2021/12/28 14:06:16;;;;;;;18.08;8.88;;;;;;;;;;5087170;28;20436;-76
2021/12/28 14:08:42;;;;;;;13.82;8.23;;;;;;;;;;5087749;28;20048;-76
2021/12/28 14:11:08;;;;;;;17.85;8.40;;;;;;;;;;5087569;28;20040;-76
2021/12/28 14:13:36;;;;;;;16.50;8.48;;;;;;;;;;5084024;28;20036;-76
2021/12/28 14:16:03;;;;;;;15.50;8.63;;;;;;;;;;5076939;28;20045;-76
2021/12/28 14:18:36;;;;;;;21.20;9.98;;;;;;;;;;5076832;28;20036;-76
2021/12/28 14:21:20;;;;;;;19.13;9.13;;;;;;;;;;5076798;28;20044;-76
2021/12/28 14:23:53;;;;;;;16.77;9.07;;;;;;;;;;5093943;28;20055;-76
2021/12/28 14:26:20;;;;;;;19.17;10.18;;;;;;;;;;5070154;28;20043;-76
2021/12/28 14:28:57;;;;;;;19.00;10.23;;;;;;;;;;5070236;28;20066;-77